Terminal Aerodrome Forecast
Issued by NWS

Home | Current Version | Previous Version | Graphics & Text | Print | Product List | Glossary On
Versions: 1 2 3 4 5 6 7 8 9 10 11 12 13 14 15 16 17 18 19 20 21 22 23 24 25 26 27 28 29 30 31 32
000
FTUS45 KGGW 241700
TAFOLF
TAF
KOLF 241727Z 2418/2518 28008KT P6SM BKN080
     FM250300 19003KT P6SM BKN050
     FM251300 16005KT 3SM -SN BKN010
     FM251700 29015KT P6SM VCSH BKN015=

USA.gov is the U.S. government's official web portal to all federal, state and local government web resources and services.